sensor_id;sensor_type;location;lat;lon;timestamp;P1;durP1;ratioP1;P2;durP2;ratioP2
40284;SDS011;25997;50.214;19.354;2022-08-01T00:00:31;6.97;;;5.63;;
40284;SDS011;25997;50.214;19.354;2022-08-01T00:03:34;5.95;;;5.20;;
40284;SDS011;25997;50.214;19.354;2022-08-01T00:06:36;7.20;;;5.38;;
40284;SDS011;25997;50.214;19.354;2022-08-01T00:09:39;5.85;;;5.35;;
40284;SDS011;25997;50.214;19.354;2022-08-01T00:12:42;6.47;;;5.47;;
40284;SDS011;25997;50.214;19.354;2022-08-01T00:15:46;6.90;;;6.10;;
40284;SDS011;25997;50.214;19.354;2022-08-01T00:18:49;7.43;;;5.65;;
40284;SDS011;25997;50.214;19.354;2022-08-01T00:21:52;6.30;;;5.70;;
40284;SDS011;25997;50.214;19.354;2022-08-01T00:24:54;8.05;;;6.07;;
40284;SDS011;25997;50.214;19.354;2022-08-01T00:27:57;6.93;;;6.05;;
40284;SDS011;25997;50.214;19.354;2022-08-01T00:31:01;7.60;;;5.72;;
40284;SDS011;25997;50.214;19.354;2022-08-01T00:34:03;6.28;;;5.07;;
40284;SDS011;25997;50.214;19.354;2022-08-01T00:37:06;7.22;;;6.07;;
40284;SDS011;25997;50.214;19.354;2022-08-01T00:40:09;6.38;;;5.78;;
40284;SDS011;25997;50.214;19.354;2022-08-01T00:43:11;7.47;;;6.13;;
40284;SDS011;25997;50.214;19.354;2022-08-01T00:46:16;7.03;;;6.32;;
40284;SDS011;25997;50.214;19.354;2022-08-01T00:49:18;7.85;;;6.47;;
40284;SDS011;25997;50.214;19.354;2022-08-01T00:52:21;6.82;;;6.13;;
40284;SDS011;25997;50.214;19.354;2022-08-01T00:55:23;6.68;;;5.85;;
40284;SDS011;25997;50.214;19.354;2022-08-01T00:58:26;9.13;;;6.18;;
40284;SDS011;25997;50.214;19.354;2022-08-01T01:01:33;7.57;;;6.20;;
40284;SDS011;25997;50.214;19.354;2022-08-01T01:04:35;13.75;;;7.00;;
40284;SDS011;25997;50.214;19.354;2022-08-01T01:07:40;8.40;;;7.00;;
40284;SDS011;25997;50.214;19.354;2022-08-01T01:10:51;8.43;;;7.05;;
40284;SDS011;25997;50.214;19.354;2022-08-01T01:13:58;8.50;;;7.60;;
40284;SDS011;25997;50.214;19.354;2022-08-01T01:17:07;11.18;;;7.45;;
40284;SDS011;25997;50.214;19.354;2022-08-01T01:20:11;7.93;;;7.00;;
40284;SDS011;25997;50.214;19.354;2022-08-01T01:23:21;10.45;;;7.30;;
40284;SDS011;25997;50.214;19.354;2022-08-01T01:26:36;8.18;;;7.40;;
40284;SDS011;25997;50.214;19.354;2022-08-01T01:29:48;9.07;;;7.78;;
40284;SDS011;25997;50.214;19.354;2022-08-01T01:32:53;7.75;;;6.95;;
40284;SDS011;25997;50.214;19.354;2022-08-01T01:36:01;8.88;;;7.85;;
40284;SDS011;25997;50.214;19.354;2022-08-01T01:39:07;10.80;;;7.47;;
40284;SDS011;25997;50.214;19.354;2022-08-01T01:42:10;7.80;;;7.07;;
40284;SDS011;25997;50.214;19.354;2022-08-01T01:45:14;10.00;;;7.53;;
40284;SDS011;25997;50.214;19.354;2022-08-01T01:48:18;9.25;;;7.35;;
40284;SDS011;25997;50.214;19.354;2022-08-01T01:51:24;9.00;;;7.60;;
40284;SDS011;25997;50.214;19.354;2022-08-01T01:54:28;9.85;;;7.70;;
40284;SDS011;25997;50.214;19.354;2022-08-01T01:57:35;8.85;;;7.60;;
40284;SDS011;25997;50.214;19.354;2022-08-01T02:00:41;9.38;;;8.48;;
40284;SDS011;25997;50.214;19.354;2022-08-01T02:03:46;10.63;;;9.07;;
40284;SDS011;25997;50.214;19.354;2022-08-01T02:06:50;8.88;;;8.05;;
40284;SDS011;25997;50.214;19.354;2022-08-01T02:09:54;10.80;;;8.82;;
40284;SDS011;25997;50.214;19.354;2022-08-01T02:12:58;9.57;;;8.60;;
40284;SDS011;25997;50.214;19.354;2022-08-01T02:16:05;9.93;;;8.70;;
40284;SDS011;25997;50.214;19.354;2022-08-01T02:19:09;10.95;;;9.10;;
40284;SDS011;25997;50.214;19.354;2022-08-01T02:22:14;11.13;;;7.97;;
40284;SDS011;25997;50.214;19.354;2022-08-01T02:25:22;10.73;;;8.60;;
40284;SDS011;25997;50.214;19.354;2022-08-01T02:28:29;10.60;;;8.40;;
40284;SDS011;25997;50.214;19.354;2022-08-01T02:31:37;10.73;;;8.77;;
40284;SDS011;25997;50.214;19.354;2022-08-01T02:34:46;9.15;;;8.15;;
40284;SDS011;25997;50.214;19.354;2022-08-01T02:37:51;11.48;;;9.77;;
40284;SDS011;25997;50.214;19.354;2022-08-01T02:40:55;11.75;;;9.55;;
40284;SDS011;25997;50.214;19.354;2022-08-01T02:44:01;10.43;;;9.32;;
40284;SDS011;25997;50.214;19.354;2022-08-01T02:47:08;9.60;;;8.65;;
40284;SDS011;25997;50.214;19.354;2022-08-01T02:50:12;9.63;;;8.65;;
40284;SDS011;25997;50.214;19.354;2022-08-01T02:53:18;9.70;;;8.70;;
40284;SDS011;25997;50.214;19.354;2022-08-01T02:56:22;9.45;;;8.60;;
40284;SDS011;25997;50.214;19.354;2022-08-01T02:59:35;10.93;;;9.82;;
40284;SDS011;25997;50.214;19.354;2022-08-01T03:02:41;12.15;;;10.23;;
40284;SDS011;25997;50.214;19.354;2022-08-01T03:05:45;12.48;;;9.65;;
40284;SDS011;25997;50.214;19.354;2022-08-01T03:08:49;10.77;;;9.55;;
40284;SDS011;25997;50.214;19.354;2022-08-01T03:11:52;11.38;;;10.23;;
40284;SDS011;25997;50.214;19.354;2022-08-01T03:14:57;10.73;;;9.60;;
40284;SDS011;25997;50.214;19.354;2022-08-01T03:18:03;10.90;;;9.80;;
40284;SDS011;25997;50.214;19.354;2022-08-01T03:21:09;11.13;;;9.38;;
40284;SDS011;25997;50.214;19.354;2022-08-01T03:24:13;14.60;;;11.57;;
40284;SDS011;25997;50.214;19.354;2022-08-01T03:27:18;10.75;;;9.50;;
40284;SDS011;25997;50.214;19.354;2022-08-01T03:30:22;11.93;;;10.70;;
40284;SDS011;25997;50.214;19.354;2022-08-01T03:33:28;28.80;;;11.75;;
40284;SDS011;25997;50.214;19.354;2022-08-01T03:36:31;201.43;;;18.88;;
40284;SDS011;25997;50.214;19.354;2022-08-01T03:39:37;121.32;;;14.80;;
40284;SDS011;25997;50.214;19.354;2022-08-01T03:42:47;32.72;;;9.65;;
40284;SDS011;25997;50.214;19.354;2022-08-01T03:45:52;19.40;;;9.90;;
40284;SDS011;25997;50.214;19.354;2022-08-01T03:48:58;11.57;;;10.38;;
40284;SDS011;25997;50.214;19.354;2022-08-01T03:52:06;11.50;;;10.40;;
40284;SDS011;25997;50.214;19.354;2022-08-01T03:55:10;12.18;;;11.02;;
40284;SDS011;25997;50.214;19.354;2022-08-01T03:58:14;19.85;;;11.60;;
40284;SDS011;25997;50.214;19.354;2022-08-01T04:01:18;70.68;;;11.10;;
40284;SDS011;25997;50.214;19.354;2022-08-01T04:04:22;10.75;;;9.70;;
40284;SDS011;25997;50.214;19.354;2022-08-01T04:07:26;16.52;;;9.85;;
40284;SDS011;25997;50.214;19.354;2022-08-01T04:10:30;11.02;;;8.73;;
40284;SDS011;25997;50.214;19.354;2022-08-01T04:13:33;14.55;;;9.27;;
40284;SDS011;25997;50.214;19.354;2022-08-01T04:16:35;10.88;;;8.93;;
40284;SDS011;25997;50.214;19.354;2022-08-01T04:19:40;24.25;;;10.68;;
40284;SDS011;25997;50.214;19.354;2022-08-01T04:22:43;31.65;;;11.10;;
40284;SDS011;25997;50.214;19.354;2022-08-01T04:25:45;61.40;;;10.55;;
40284;SDS011;25997;50.214;19.354;2022-08-01T04:28:51;51.15;;;11.32;;
40284;SDS011;25997;50.214;19.354;2022-08-01T04:31:56;48.92;;;11.23;;
40284;SDS011;25997;50.214;19.354;2022-08-01T04:35:03;11.93;;;9.50;;
40284;SDS011;25997;50.214;19.354;2022-08-01T04:38:09;11.20;;;10.10;;
40284;SDS011;25997;50.214;19.354;2022-08-01T04:41:14;11.55;;;10.43;;
40284;SDS011;25997;50.214;19.354;2022-08-01T04:44:18;11.30;;;10.20;;
40284;SDS011;25997;50.214;19.354;2022-08-01T04:47:20;10.35;;;9.23;;
40284;SDS011;25997;50.214;19.354;2022-08-01T04:50:26;10.93;;;9.88;;
40284;SDS011;25997;50.214;19.354;2022-08-01T04:53:29;11.68;;;10.57;;
40284;SDS011;25997;50.214;19.354;2022-08-01T04:56:32;12.82;;;10.48;;
40284;SDS011;25997;50.214;19.354;2022-08-01T04:59:36;13.35;;;10.32;;
40284;SDS011;25997;50.214;19.354;2022-08-01T05:02:43;13.00;;;9.90;;
40284;SDS011;25997;50.214;19.354;2022-08-01T05:05:48;11.68;;;10.48;;
40284;SDS011;25997;50.214;19.354;2022-08-01T05:08:51;11.73;;;10.60;;
40284;SDS011;25997;50.214;19.354;2022-08-01T05:11:53;11.60;;;10.50;;
40284;SDS011;25997;50.214;19.354;2022-08-01T05:14:59;12.18;;;10.77;;
40284;SDS011;25997;50.214;19.354;2022-08-01T05:18:02;13.95;;;11.50;;
40284;SDS011;25997;50.214;19.354;2022-08-01T05:21:07;14.57;;;10.55;;
40284;SDS011;25997;50.214;19.354;2022-08-01T05:24:10;12.05;;;10.68;;
40284;SDS011;25997;50.214;19.354;2022-08-01T05:27:13;13.60;;;12.13;;
40284;SDS011;25997;50.214;19.354;2022-08-01T05:30:15;12.98;;;10.85;;
40284;SDS011;25997;50.214;19.354;2022-08-01T05:33:18;11.75;;;10.55;;
40284;SDS011;25997;50.214;19.354;2022-08-01T05:36:23;10.45;;;9.55;;
40284;SDS011;25997;50.214;19.354;2022-08-01T05:39:26;12.20;;;10.63;;
40284;SDS011;25997;50.214;19.354;2022-08-01T05:42:28;14.45;;;9.60;;
40284;SDS011;25997;50.214;19.354;2022-08-01T05:45:31;10.82;;;9.80;;
40284;SDS011;25997;50.214;19.354;2022-08-01T05:48:34;11.43;;;10.23;;
40284;SDS011;25997;50.214;19.354;2022-08-01T05:51:38;9.20;;;8.40;;
40284;SDS011;25997;50.214;19.354;2022-08-01T05:54:40;10.32;;;9.23;;
40284;SDS011;25997;50.214;19.354;2022-08-01T05:57:43;9.93;;;8.15;;
40284;SDS011;25997;50.214;19.354;2022-08-01T06:00:45;10.77;;;8.38;;
40284;SDS011;25997;50.214;19.354;2022-08-01T06:03:48;13.70;;;10.00;;
40284;SDS011;25997;50.214;19.354;2022-08-01T06:06:52;10.02;;;9.00;;
40284;SDS011;25997;50.214;19.354;2022-08-01T06:09:54;11.38;;;8.82;;
40284;SDS011;25997;50.214;19.354;2022-08-01T06:12:57;10.38;;;8.98;;
40284;SDS011;25997;50.214;19.354;2022-08-01T06:16:03;12.15;;;8.63;;
40284;SDS011;25997;50.214;19.354;2022-08-01T06:19:06;11.10;;;9.90;;
40284;SDS011;25997;50.214;19.354;2022-08-01T06:22:10;9.68;;;8.27;;
40284;SDS011;25997;50.214;19.354;2022-08-01T06:25:13;8.98;;;8.07;;
40284;SDS011;25997;50.214;19.354;2022-08-01T06:28:15;9.63;;;8.65;;
40284;SDS011;25997;50.214;19.354;2022-08-01T06:31:18;9.13;;;7.90;;
40284;SDS011;25997;50.214;19.354;2022-08-01T06:34:20;9.00;;;8.10;;
40284;SDS011;25997;50.214;19.354;2022-08-01T06:37:27;11.05;;;8.30;;
40284;SDS011;25997;50.214;19.354;2022-08-01T06:40:31;9.52;;;7.95;;
40284;SDS011;25997;50.214;19.354;2022-08-01T06:43:33;7.63;;;6.82;;
40284;SDS011;25997;50.214;19.354;2022-08-01T06:46:36;9.80;;;8.80;;
40284;SDS011;25997;50.214;19.354;2022-08-01T06:49:39;9.55;;;7.25;;
40284;SDS011;25997;50.214;19.354;2022-08-01T06:52:43;11.93;;;8.13;;
40284;SDS011;25997;50.214;19.354;2022-08-01T06:55:45;10.05;;;7.78;;
40284;SDS011;25997;50.214;19.354;2022-08-01T06:58:48;8.95;;;7.35;;
40284;SDS011;25997;50.214;19.354;2022-08-01T07:01:51;7.70;;;6.90;;
40284;SDS011;25997;50.214;19.354;2022-08-01T07:04:53;8.93;;;6.78;;
40284;SDS011;25997;50.214;19.354;2022-08-01T07:07:59;9.45;;;6.88;;
40284;SDS011;25997;50.214;19.354;2022-08-01T07:11:02;10.43;;;7.88;;
40284;SDS011;25997;50.214;19.354;2022-08-01T07:14:04;7.43;;;6.28;;
40284;SDS011;25997;50.214;19.354;2022-08-01T07:17:07;8.77;;;5.80;;
40284;SDS011;25997;50.214;19.354;2022-08-01T07:20:10;7.03;;;5.90;;
40284;SDS011;25997;50.214;19.354;2022-08-01T07:23:15;6.95;;;5.10;;
40284;SDS011;25997;50.214;19.354;2022-08-01T07:26:19;6.70;;;5.95;;
40284;SDS011;25997;50.214;19.354;2022-08-01T07:29:22;6.47;;;5.70;;
40284;SDS011;25997;50.214;19.354;2022-08-01T07:32:25;6.75;;;4.88;;
40284;SDS011;25997;50.214;19.354;2022-08-01T07:35:29;6.13;;;5.43;;
40284;SDS011;25997;50.214;19.354;2022-08-01T07:38:33;5.32;;;4.53;;
40284;SDS011;25997;50.214;19.354;2022-08-01T07:41:36;9.05;;;4.82;;
40284;SDS011;25997;50.214;19.354;2022-08-01T07:44:38;5.10;;;4.15;;
40284;SDS011;25997;50.214;19.354;2022-08-01T07:47:41;6.63;;;4.97;;
40284;SDS011;25997;50.214;19.354;2022-08-01T07:50:44;7.55;;;4.57;;
40284;SDS011;25997;50.214;19.354;2022-08-01T07:53:48;5.80;;;4.65;;
40284;SDS011;25997;50.214;19.354;2022-08-01T07:56:51;5.50;;;4.18;;
40284;SDS011;25997;50.214;19.354;2022-08-01T07:59:53;5.45;;;4.47;;
40284;SDS011;25997;50.214;19.354;2022-08-01T08:02:56;6.13;;;4.10;;
40284;SDS011;25997;50.214;19.354;2022-08-01T08:05:59;4.57;;;4.13;;
40284;SDS011;25997;50.214;19.354;2022-08-01T08:09:04;6.60;;;4.10;;
40284;SDS011;25997;50.214;19.354;2022-08-01T08:12:06;4.70;;;4.05;;
40284;SDS011;25997;50.214;19.354;2022-08-01T08:15:09;6.38;;;3.60;;
40284;SDS011;25997;50.214;19.354;2022-08-01T08:18:12;4.43;;;4.00;;
40284;SDS011;25997;50.214;19.354;2022-08-01T08:21:14;5.90;;;3.70;;
40284;SDS011;25997;50.214;19.354;2022-08-01T08:24:18;6.50;;;3.70;;
40284;SDS011;25997;50.214;19.354;2022-08-01T08:27:21;4.55;;;3.63;;
40284;SDS011;25997;50.214;19.354;2022-08-01T08:30:24;5.30;;;2.95;;
40284;SDS011;25997;50.214;19.354;2022-08-01T08:33:26;5.57;;;3.10;;
40284;SDS011;25997;50.214;19.354;2022-08-01T08:36:29;4.95;;;2.55;;
40284;SDS011;25997;50.214;19.354;2022-08-01T08:39:33;3.97;;;2.35;;
40284;SDS011;25997;50.214;19.354;2022-08-01T08:42:36;4.75;;;2.80;;
40284;SDS011;25997;50.214;19.354;2022-08-01T08:45:41;4.88;;;3.53;;
40284;SDS011;25997;50.214;19.354;2022-08-01T08:48:46;3.40;;;2.85;;
40284;SDS011;25997;50.214;19.354;2022-08-01T08:51:50;5.95;;;2.35;;
40284;SDS011;25997;50.214;19.354;2022-08-01T08:54:54;3.35;;;2.53;;
40284;SDS011;25997;50.214;19.354;2022-08-01T08:57:59;7.72;;;2.97;;
40284;SDS011;25997;50.214;19.354;2022-08-01T09:01:06;4.85;;;3.10;;
40284;SDS011;25997;50.214;19.354;2022-08-01T09:04:10;5.95;;;2.95;;
40284;SDS011;25997;50.214;19.354;2022-08-01T09:07:13;3.60;;;2.65;;
40284;SDS011;25997;50.214;19.354;2022-08-01T09:10:17;3.90;;;2.65;;
40284;SDS011;25997;50.214;19.354;2022-08-01T09:13:20;5.53;;;2.50;;
40284;SDS011;25997;50.214;19.354;2022-08-01T09:16:22;5.93;;;2.42;;
40284;SDS011;25997;50.214;19.354;2022-08-01T09:19:25;5.07;;;3.03;;
40284;SDS011;25997;50.214;19.354;2022-08-01T09:22:37;4.43;;;3.22;;
40284;SDS011;25997;50.214;19.354;2022-08-01T09:25:51;5.82;;;3.20;;
40284;SDS011;25997;50.214;19.354;2022-08-01T09:28:54;6.50;;;3.25;;
40284;SDS011;25997;50.214;19.354;2022-08-01T09:31:57;4.22;;;3.20;;
40284;SDS011;25997;50.214;19.354;2022-08-01T09:35:02;3.63;;;3.33;;
40284;SDS011;25997;50.214;19.354;2022-08-01T09:38:25;6.03;;;4.00;;
40284;SDS011;25997;50.214;19.354;2022-08-01T09:41:30;7.40;;;3.78;;
40284;SDS011;25997;50.214;19.354;2022-08-01T09:44:36;6.70;;;3.20;;
40284;SDS011;25997;50.214;19.354;2022-08-01T09:47:40;3.40;;;3.10;;
40284;SDS011;25997;50.214;19.354;2022-08-01T09:50:43;5.55;;;3.25;;
40284;SDS011;25997;50.214;19.354;2022-08-01T09:53:47;5.30;;;3.38;;
40284;SDS011;25997;50.214;19.354;2022-08-01T09:56:52;8.02;;;3.60;;
40284;SDS011;25997;50.214;19.354;2022-08-01T09:59:55;4.70;;;4.00;;
40284;SDS011;25997;50.214;19.354;2022-08-01T10:02:59;5.47;;;3.50;;
40284;SDS011;25997;50.214;19.354;2022-08-01T10:06:15;7.82;;;3.63;;
40284;SDS011;25997;50.214;19.354;2022-08-01T10:12:30;5.32;;;3.67;;
40284;SDS011;25997;50.214;19.354;2022-08-01T10:15:34;6.43;;;4.97;;
40284;SDS011;25997;50.214;19.354;2022-08-01T10:18:37;6.35;;;4.30;;
40284;SDS011;25997;50.214;19.354;2022-08-01T10:21:43;4.78;;;3.70;;
40284;SDS011;25997;50.214;19.354;2022-08-01T10:24:50;11.20;;;6.40;;
40284;SDS011;25997;50.214;19.354;2022-08-01T10:27:58;7.43;;;5.10;;
40284;SDS011;25997;50.214;19.354;2022-08-01T10:31:03;5.50;;;4.95;;
40284;SDS011;25997;50.214;19.354;2022-08-01T10:34:07;5.75;;;4.20;;
40284;SDS011;25997;50.214;19.354;2022-08-01T10:37:10;20.90;;;18.77;;
40284;SDS011;25997;50.214;19.354;2022-08-01T10:40:15;11.32;;;9.95;;
40284;SDS011;25997;50.214;19.354;2022-08-01T10:43:19;5.07;;;4.13;;
40284;SDS011;25997;50.214;19.354;2022-08-01T10:46:22;10.60;;;8.18;;
40284;SDS011;25997;50.214;19.354;2022-08-01T10:49:26;6.50;;;4.28;;
40284;SDS011;25997;50.214;19.354;2022-08-01T10:52:32;5.63;;;3.42;;
40284;SDS011;25997;50.214;19.354;2022-08-01T10:55:44;7.93;;;4.35;;
40284;SDS011;25997;50.214;19.354;2022-08-01T10:58:55;4.90;;;3.80;;
40284;SDS011;25997;50.214;19.354;2022-08-01T11:02:04;4.13;;;3.70;;
40284;SDS011;25997;50.214;19.354;2022-08-01T11:05:09;5.03;;;3.17;;
40284;SDS011;25997;50.214;19.354;2022-08-01T11:08:20;5.38;;;3.92;;
40284;SDS011;25997;50.214;19.354;2022-08-01T11:11:24;4.85;;;3.30;;
40284;SDS011;25997;50.214;19.354;2022-08-01T11:14:28;4.13;;;3.65;;
40284;SDS011;25997;50.214;19.354;2022-08-01T11:17:32;4.97;;;3.85;;
40284;SDS011;25997;50.214;19.354;2022-08-01T11:20:36;9.45;;;3.92;;
40284;SDS011;25997;50.214;19.354;2022-08-01T11:23:46;9.77;;;4.03;;
40284;SDS011;25997;50.214;19.354;2022-08-01T11:30:29;8.85;;;4.60;;
40284;SDS011;25997;50.214;19.354;2022-08-01T11:33:47;8.20;;;4.10;;
40284;SDS011;25997;50.214;19.354;2022-08-01T11:40:16;6.22;;;4.32;;
40284;SDS011;25997;50.214;19.354;2022-08-01T11:43:20;8.48;;;6.78;;
40284;SDS011;25997;50.214;19.354;2022-08-01T11:50:03;7.38;;;4.75;;
40284;SDS011;25997;50.214;19.354;2022-08-01T11:53:07;8.57;;;5.03;;
40284;SDS011;25997;50.214;19.354;2022-08-01T11:56:10;7.93;;;4.53;;
40284;SDS011;25997;50.214;19.354;2022-08-01T11:59:13;6.13;;;4.28;;
40284;SDS011;25997;50.214;19.354;2022-08-01T12:02:18;5.90;;;5.30;;
40284;SDS011;25997;50.214;19.354;2022-08-01T12:05:22;9.05;;;4.78;;
40284;SDS011;25997;50.214;19.354;2022-08-01T12:08:25;6.10;;;5.43;;
40284;SDS011;25997;50.214;19.354;2022-08-01T12:11:28;8.60;;;5.72;;
40284;SDS011;25997;50.214;19.354;2022-08-01T12:14:31;9.27;;;5.70;;
40284;SDS011;25997;50.214;19.354;2022-08-01T12:17:35;5.85;;;5.25;;
40284;SDS011;25997;50.214;19.354;2022-08-01T12:20:39;6.72;;;5.95;;
40284;SDS011;25997;50.214;19.354;2022-08-01T12:23:44;7.28;;;5.75;;
40284;SDS011;25997;50.214;19.354;2022-08-01T12:26:47;6.95;;;5.75;;
40284;SDS011;25997;50.214;19.354;2022-08-01T12:29:49;7.05;;;6.30;;
40284;SDS011;25997;50.214;19.354;2022-08-01T12:32:53;6.47;;;5.88;;
40284;SDS011;25997;50.214;19.354;2022-08-01T12:35:56;7.32;;;5.97;;
40284;SDS011;25997;50.214;19.354;2022-08-01T12:38:59;7.05;;;5.80;;
40284;SDS011;25997;50.214;19.354;2022-08-01T12:42:05;7.45;;;5.53;;
40284;SDS011;25997;50.214;19.354;2022-08-01T12:45:12;7.60;;;5.97;;
40284;SDS011;25997;50.214;19.354;2022-08-01T12:48:17;6.28;;;5.55;;
40284;SDS011;25997;50.214;19.354;2022-08-01T12:51:21;6.03;;;5.50;;
40284;SDS011;25997;50.214;19.354;2022-08-01T12:54:23;6.47;;;5.93;;
40284;SDS011;25997;50.214;19.354;2022-08-01T12:57:26;6.93;;;4.15;;
40284;SDS011;25997;50.214;19.354;2022-08-01T13:00:29;7.90;;;4.55;;
40284;SDS011;25997;50.214;19.354;2022-08-01T13:03:33;7.00;;;6.15;;
40284;SDS011;25997;50.214;19.354;2022-08-01T13:06:36;5.05;;;4.55;;
40284;SDS011;25997;50.214;19.354;2022-08-01T13:09:48;9.07;;;8.18;;
40284;SDS011;25997;50.214;19.354;2022-08-01T13:12:52;5.10;;;4.63;;
40284;SDS011;25997;50.214;19.354;2022-08-01T13:16:02;10.60;;;4.65;;
40284;SDS011;25997;50.214;19.354;2022-08-01T13:19:12;6.50;;;4.60;;
40284;SDS011;25997;50.214;19.354;2022-08-01T13:22:15;5.00;;;4.20;;
40284;SDS011;25997;50.214;19.354;2022-08-01T13:25:18;5.80;;;3.95;;
40284;SDS011;25997;50.214;19.354;2022-08-01T13:28:22;7.63;;;6.60;;
40284;SDS011;25997;50.214;19.354;2022-08-01T13:31:31;6.07;;;4.00;;
40284;SDS011;25997;50.214;19.354;2022-08-01T13:34:36;4.97;;;4.05;;
40284;SDS011;25997;50.214;19.354;2022-08-01T13:37:41;4.10;;;3.35;;
40284;SDS011;25997;50.214;19.354;2022-08-01T13:40:49;4.50;;;3.60;;
40284;SDS011;25997;50.214;19.354;2022-08-01T13:44:00;4.13;;;3.80;;
40284;SDS011;25997;50.214;19.354;2022-08-01T13:47:02;5.72;;;4.80;;
40284;SDS011;25997;50.214;19.354;2022-08-01T13:50:07;5.38;;;4.68;;
40284;SDS011;25997;50.214;19.354;2022-08-01T13:53:11;4.93;;;3.67;;
40284;SDS011;25997;50.214;19.354;2022-08-01T13:56:13;5.90;;;4.03;;
40284;SDS011;25997;50.214;19.354;2022-08-01T13:59:17;5.07;;;4.40;;
40284;SDS011;25997;50.214;19.354;2022-08-01T14:02:20;4.22;;;3.40;;
40284;SDS011;25997;50.214;19.354;2022-08-01T14:05:24;4.30;;;3.90;;
40284;SDS011;25997;50.214;19.354;2022-08-01T14:08:27;4.13;;;3.40;;
40284;SDS011;25997;50.214;19.354;2022-08-01T14:11:29;8.55;;;4.10;;
40284;SDS011;25997;50.214;19.354;2022-08-01T14:14:33;3.75;;;3.45;;
40284;SDS011;25997;50.214;19.354;2022-08-01T14:17:36;3.55;;;3.25;;
40284;SDS011;25997;50.214;19.354;2022-08-01T14:20:40;5.72;;;4.05;;
40284;SDS011;25997;50.214;19.354;2022-08-01T14:23:44;5.22;;;3.70;;
40284;SDS011;25997;50.214;19.354;2022-08-01T14:26:48;5.22;;;3.55;;
40284;SDS011;25997;50.214;19.354;2022-08-01T14:29:50;7.65;;;5.13;;
40284;SDS011;25997;50.214;19.354;2022-08-01T14:32:53;7.85;;;3.92;;
40284;SDS011;25997;50.214;19.354;2022-08-01T14:35:57;11.25;;;10.25;;
40284;SDS011;25997;50.214;19.354;2022-08-01T14:39:02;7.70;;;6.28;;
40284;SDS011;25997;50.214;19.354;2022-08-01T14:42:09;5.97;;;4.10;;
40284;SDS011;25997;50.214;19.354;2022-08-01T14:45:16;4.97;;;4.00;;
40284;SDS011;25997;50.214;19.354;2022-08-01T14:48:19;6.32;;;3.47;;
40284;SDS011;25997;50.214;19.354;2022-08-01T14:51:23;3.30;;;2.97;;
40284;SDS011;25997;50.214;19.354;2022-08-01T14:54:25;8.77;;;4.18;;
40284;SDS011;25997;50.214;19.354;2022-08-01T14:57:31;13.10;;;8.68;;
40284;SDS011;25997;50.214;19.354;2022-08-01T15:00:35;11.02;;;8.10;;
40284;SDS011;25997;50.214;19.354;2022-08-01T15:03:38;8.57;;;7.78;;
40284;SDS011;25997;50.214;19.354;2022-08-01T15:06:42;4.50;;;3.95;;
40284;SDS011;25997;50.214;19.354;2022-08-01T15:09:45;8.70;;;5.68;;
40284;SDS011;25997;50.214;19.354;2022-08-01T15:12:48;7.28;;;6.00;;
40284;SDS011;25997;50.214;19.354;2022-08-01T15:15:50;15.18;;;11.57;;
40284;SDS011;25997;50.214;19.354;2022-08-01T15:18:53;6.45;;;5.45;;
40284;SDS011;25997;50.214;19.354;2022-08-01T15:21:57;7.28;;;5.88;;
40284;SDS011;25997;50.214;19.354;2022-08-01T15:25:02;10.10;;;7.35;;
40284;SDS011;25997;50.214;19.354;2022-08-01T15:28:06;16.83;;;11.35;;
40284;SDS011;25997;50.214;19.354;2022-08-01T15:31:11;10.85;;;8.95;;
40284;SDS011;25997;50.214;19.354;2022-08-01T15:34:14;11.57;;;7.28;;
40284;SDS011;25997;50.214;19.354;2022-08-01T15:37:19;12.65;;;5.13;;
40284;SDS011;25997;50.214;19.354;2022-08-01T15:40:22;6.38;;;5.65;;
40284;SDS011;25997;50.214;19.354;2022-08-01T15:43:28;5.53;;;4.10;;
40284;SDS011;25997;50.214;19.354;2022-08-01T15:46:32;5.35;;;4.85;;
40284;SDS011;25997;50.214;19.354;2022-08-01T15:49:35;6.25;;;4.47;;
40284;SDS011;25997;50.214;19.354;2022-08-01T15:52:40;9.00;;;6.45;;
40284;SDS011;25997;50.214;19.354;2022-08-01T15:55:43;7.50;;;5.88;;
40284;SDS011;25997;50.214;19.354;2022-08-01T15:58:46;8.38;;;5.63;;
40284;SDS011;25997;50.214;19.354;2022-08-01T16:01:48;6.35;;;5.75;;
40284;SDS011;25997;50.214;19.354;2022-08-01T16:04:52;8.35;;;5.10;;
40284;SDS011;25997;50.214;19.354;2022-08-01T16:07:56;8.68;;;5.18;;
40284;SDS011;25997;50.214;19.354;2022-08-01T16:10:58;6.40;;;5.68;;
40284;SDS011;25997;50.214;19.354;2022-08-01T16:14:01;6.72;;;6.13;;
40284;SDS011;25997;50.214;19.354;2022-08-01T16:17:04;6.40;;;5.80;;
40284;SDS011;25997;50.214;19.354;2022-08-01T16:20:07;6.35;;;5.60;;
40284;SDS011;25997;50.214;19.354;2022-08-01T16:23:12;6.57;;;5.63;;
40284;SDS011;25997;50.214;19.354;2022-08-01T16:26:16;5.72;;;5.22;;
40284;SDS011;25997;50.214;19.354;2022-08-01T16:29:19;9.73;;;6.30;;
40284;SDS011;25997;50.214;19.354;2022-08-01T16:32:21;8.43;;;6.72;;
40284;SDS011;25997;50.214;19.354;2022-08-01T16:35:24;8.95;;;5.82;;
40284;SDS011;25997;50.214;19.354;2022-08-01T16:38:28;9.63;;;7.13;;
40284;SDS011;25997;50.214;19.354;2022-08-01T16:41:30;7.88;;;7.15;;
40284;SDS011;25997;50.214;19.354;2022-08-01T16:44:33;7.38;;;6.68;;
40284;SDS011;25997;50.214;19.354;2022-08-01T16:47:35;8.13;;;7.43;;
40284;SDS011;25997;50.214;19.354;2022-08-01T16:50:38;10.23;;;8.23;;
40284;SDS011;25997;50.214;19.354;2022-08-01T16:53:42;8.43;;;6.50;;
40284;SDS011;25997;50.214;19.354;2022-08-01T16:56:45;8.18;;;7.45;;
40284;SDS011;25997;50.214;19.354;2022-08-01T16:59:48;16.15;;;14.38;;
40284;SDS011;25997;50.214;19.354;2022-08-01T17:02:50;8.55;;;7.75;;
40284;SDS011;25997;50.214;19.354;2022-08-01T17:05:53;8.40;;;7.60;;
40284;SDS011;25997;50.214;19.354;2022-08-01T17:08:57;9.10;;;7.47;;
40284;SDS011;25997;50.214;19.354;2022-08-01T17:12:00;16.52;;;15.05;;
40284;SDS011;25997;50.214;19.354;2022-08-01T17:15:02;11.50;;;10.45;;
40284;SDS011;25997;50.214;19.354;2022-08-01T17:18:05;8.98;;;8.07;;
40284;SDS011;25997;50.214;19.354;2022-08-01T17:21:08;11.20;;;8.73;;
40284;SDS011;25997;50.214;19.354;2022-08-01T17:24:12;10.30;;;8.45;;
40284;SDS011;25997;50.214;19.354;2022-08-01T17:27:16;11.75;;;8.88;;
40284;SDS011;25997;50.214;19.354;2022-08-01T17:30:19;12.82;;;11.60;;
40284;SDS011;25997;50.214;19.354;2022-08-01T17:33:22;11.80;;;10.63;;
40284;SDS011;25997;50.214;19.354;2022-08-01T17:36:24;11.13;;;10.07;;
40284;SDS011;25997;50.214;19.354;2022-08-01T17:39:29;11.65;;;10.55;;
40284;SDS011;25997;50.214;19.354;2022-08-01T17:42:31;14.70;;;10.07;;
40284;SDS011;25997;50.214;19.354;2022-08-01T17:45:34;10.70;;;9.55;;
40284;SDS011;25997;50.214;19.354;2022-08-01T17:48:37;10.98;;;10.00;;
40284;SDS011;25997;50.214;19.354;2022-08-01T17:51:39;9.90;;;8.55;;
40284;SDS011;25997;50.214;19.354;2022-08-01T17:54:43;9.90;;;8.57;;
40284;SDS011;25997;50.214;19.354;2022-08-01T17:57:46;9.95;;;8.32;;
40284;SDS011;25997;50.214;19.354;2022-08-01T18:00:49;11.43;;;10.23;;
40284;SDS011;25997;50.214;19.354;2022-08-01T18:03:51;11.30;;;10.13;;
40284;SDS011;25997;50.214;19.354;2022-08-01T18:06:54;11.90;;;10.75;;
40284;SDS011;25997;50.214;19.354;2022-08-01T18:09:58;13.55;;;11.57;;
40284;SDS011;25997;50.214;19.354;2022-08-01T18:13:01;12.02;;;10.75;;
40284;SDS011;25997;50.214;19.354;2022-08-01T18:16:05;12.55;;;11.43;;
40284;SDS011;25997;50.214;19.354;2022-08-01T18:19:08;11.20;;;10.05;;